sensor_id;sensor_type;location;lat;lon;timestamp;temperature;humidity
25640;DHT22;13497;48.322;16.204;2023-03-31T00:01:36;9.70;99.90
25640;DHT22;13497;48.322;16.204;2023-03-31T00:04:07;9.70;99.90
25640;DHT22;13497;48.322;16.204;2023-03-31T00:06:36;9.60;99.90
25640;DHT22;13497;48.322;16.204;2023-03-31T00:09:10;9.50;99.90
25640;DHT22;13497;48.322;16.204;2023-03-31T00:11:36;9.40;99.90
25640;DHT22;13497;48.322;16.204;2023-03-31T00:14:03;9.40;99.90
25640;DHT22;13497;48.322;16.204;2023-03-31T00:16:32;9.30;99.90
25640;DHT22;13497;48.322;16.204;2023-03-31T00:18:58;9.20;99.90
25640;DHT22;13497;48.322;16.204;2023-03-31T00:21:27;9.10;99.90
25640;DHT22;13497;48.322;16.204;2023-03-31T00:24:03;9.10;99.90
25640;DHT22;13497;48.322;16.204;2023-03-31T00:26:29;9.00;99.90
25640;DHT22;13497;48.322;16.204;2023-03-31T00:28:57;8.90;99.90
25640;DHT22;13497;48.322;16.204;2023-03-31T00:31:23;8.70;99.90
25640;DHT22;13497;48.322;16.204;2023-03-31T00:33:49;8.60;99.90
25640;DHT22;13497;48.322;16.204;2023-03-31T00:36:14;8.60;99.90
25640;DHT22;13497;48.322;16.204;2023-03-31T00:38:48;8.50;99.90
25640;DHT22;13497;48.322;16.204;2023-03-31T00:41:16;8.40;99.90
25640;DHT22;13497;48.322;16.204;2023-03-31T00:44:04;8.30;99.90
25640;DHT22;13497;48.322;16.204;2023-03-31T00:46:40;8.30;99.90
25640;DHT22;13497;48.322;16.204;2023-03-31T00:49:13;8.40;99.90
25640;DHT22;13497;48.322;16.204;2023-03-31T00:51:42;8.20;99.90
25640;DHT22;13497;48.322;16.204;2023-03-31T00:54:08;8.30;99.90
25640;DHT22;13497;48.322;16.204;2023-03-31T00:56:39;8.30;99.90
25640;DHT22;13497;48.322;16.204;2023-03-31T00:59:09;8.20;99.90
25640;DHT22;13497;48.322;16.204;2023-03-31T01:01:37;8.20;99.90
25640;DHT22;13497;48.322;16.204;2023-03-31T01:04:04;8.10;99.90
25640;DHT22;13497;48.322;16.204;2023-03-31T01:06:32;8.10;99.90
25640;DHT22;13497;48.322;16.204;2023-03-31T01:08:58;8.00;99.90
25640;DHT22;13497;48.322;16.204;2023-03-31T01:11:26;8.00;99.90
25640;DHT22;13497;48.322;16.204;2023-03-31T01:13:55;8.00;99.90
25640;DHT22;13497;48.322;16.204;2023-03-31T01:16:22;8.10;99.90
25640;DHT22;13497;48.322;16.204;2023-03-31T01:18:48;8.10;99.90
25640;DHT22;13497;48.322;16.204;2023-03-31T01:30:30;8.00;99.90
25640;DHT22;13497;48.322;16.204;2023-03-31T01:49:36;7.80;99.90
25640;DHT22;13497;48.322;16.204;2023-03-31T01:52:34;7.90;99.90
25640;DHT22;13497;48.322;16.204;2023-03-31T01:55:45;8.00;99.90
25640;DHT22;13497;48.322;16.204;2023-03-31T02:01:04;7.90;99.90
25640;DHT22;13497;48.322;16.204;2023-03-31T02:03:37;7.90;99.90
25640;DHT22;13497;48.322;16.204;2023-03-31T02:06:10;7.90;99.90
25640;DHT22;13497;48.322;16.204;2023-03-31T02:08:44;7.90;99.90
25640;DHT22;13497;48.322;16.204;2023-03-31T02:11:12;8.10;99.90
25640;DHT22;13497;48.322;16.204;2023-03-31T02:13:40;8.30;99.90
25640;DHT22;13497;48.322;16.204;2023-03-31T02:16:13;8.50;99.90
25640;DHT22;13497;48.322;16.204;2023-03-31T02:18:44;8.70;99.90
25640;DHT22;13497;48.322;16.204;2023-03-31T02:21:11;8.90;99.90
25640;DHT22;13497;48.322;16.204;2023-03-31T02:23:39;9.10;99.90
25640;DHT22;13497;48.322;16.204;2023-03-31T02:26:36;9.30;99.90
25640;DHT22;13497;48.322;16.204;2023-03-31T02:29:02;9.30;99.90
25640;DHT22;13497;48.322;16.204;2023-03-31T02:31:46;9.40;99.90
25640;DHT22;13497;48.322;16.204;2023-03-31T02:34:14;9.40;99.90
25640;DHT22;13497;48.322;16.204;2023-03-31T02:36:41;9.40;99.90
25640;DHT22;13497;48.322;16.204;2023-03-31T02:39:16;9.50;99.90
25640;DHT22;13497;48.322;16.204;2023-03-31T02:41:43;9.50;99.90
25640;DHT22;13497;48.322;16.204;2023-03-31T02:44:10;9.50;99.90
25640;DHT22;13497;48.322;16.204;2023-03-31T02:46:36;9.50;99.90
25640;DHT22;13497;48.322;16.204;2023-03-31T02:49:04;9.50;99.90
25640;DHT22;13497;48.322;16.204;2023-03-31T02:54:04;9.40;99.90
25640;DHT22;13497;48.322;16.204;2023-03-31T03:15:14;8.50;99.90
25640;DHT22;13497;48.322;16.204;2023-03-31T03:17:43;8.30;99.90
25640;DHT22;13497;48.322;16.204;2023-03-31T03:20:10;8.30;99.90
25640;DHT22;13497;48.322;16.204;2023-03-31T03:22:36;8.20;99.90
25640;DHT22;13497;48.322;16.204;2023-03-31T03:25:04;8.10;99.90
25640;DHT22;13497;48.322;16.204;2023-03-31T03:27:30;8.10;99.90
25640;DHT22;13497;48.322;16.204;2023-03-31T03:29:57;8.00;99.90
25640;DHT22;13497;48.322;16.204;2023-03-31T03:32:23;8.00;99.90
25640;DHT22;13497;48.322;16.204;2023-03-31T03:34:49;8.00;99.90
25640;DHT22;13497;48.322;16.204;2023-03-31T03:37:14;8.00;99.90
25640;DHT22;13497;48.322;16.204;2023-03-31T03:39:40;8.00;99.90
25640;DHT22;13497;48.322;16.204;2023-03-31T03:42:06;8.00;99.90
25640;DHT22;13497;48.322;16.204;2023-03-31T03:44:31;7.90;99.90
25640;DHT22;13497;48.322;16.204;2023-03-31T03:46:57;7.90;99.90
25640;DHT22;13497;48.322;16.204;2023-03-31T03:49:23;7.90;99.90
25640;DHT22;13497;48.322;16.204;2023-03-31T03:51:48;7.80;99.90
25640;DHT22;13497;48.322;16.204;2023-03-31T03:54:15;7.80;99.90
25640;DHT22;13497;48.322;16.204;2023-03-31T03:56:40;7.80;99.90
25640;DHT22;13497;48.322;16.204;2023-03-31T03:59:06;7.80;99.90
25640;DHT22;13497;48.322;16.204;2023-03-31T04:01:32;7.80;99.90
25640;DHT22;13497;48.322;16.204;2023-03-31T04:03:57;8.00;99.90
25640;DHT22;13497;48.322;16.204;2023-03-31T04:06:23;8.10;99.90
25640;DHT22;13497;48.322;16.204;2023-03-31T04:08:48;8.10;99.90
25640;DHT22;13497;48.322;16.204;2023-03-31T04:11:16;8.10;99.90
25640;DHT22;13497;48.322;16.204;2023-03-31T04:13:43;8.10;99.90
25640;DHT22;13497;48.322;16.204;2023-03-31T04:16:09;8.10;99.90
25640;DHT22;13497;48.322;16.204;2023-03-31T04:18:35;8.10;99.90
25640;DHT22;13497;48.322;16.204;2023-03-31T04:21:10;8.10;99.90
25640;DHT22;13497;48.322;16.204;2023-03-31T04:23:48;8.10;99.90
25640;DHT22;13497;48.322;16.204;2023-03-31T04:26:16;8.20;99.90
25640;DHT22;13497;48.322;16.204;2023-03-31T04:28:43;8.10;99.90
25640;DHT22;13497;48.322;16.204;2023-03-31T04:31:12;8.10;99.90
25640;DHT22;13497;48.322;16.204;2023-03-31T04:33:41;8.00;99.90
25640;DHT22;13497;48.322;16.204;2023-03-31T04:36:10;8.00;99.90
25640;DHT22;13497;48.322;16.204;2023-03-31T04:38:42;8.10;99.90
25640;DHT22;13497;48.322;16.204;2023-03-31T04:41:14;8.00;99.90
25640;DHT22;13497;48.322;16.204;2023-03-31T04:43:40;8.00;99.90
25640;DHT22;13497;48.322;16.204;2023-03-31T04:46:06;8.00;99.90
25640;DHT22;13497;48.322;16.204;2023-03-31T04:48:31;8.10;99.90
25640;DHT22;13497;48.322;16.204;2023-03-31T04:50:57;8.10;99.90
25640;DHT22;13497;48.322;16.204;2023-03-31T04:53:23;8.20;99.90
25640;DHT22;13497;48.322;16.204;2023-03-31T04:55:49;8.20;99.90
25640;DHT22;13497;48.322;16.204;2023-03-31T04:58:15;8.20;99.90
25640;DHT22;13497;48.322;16.204;2023-03-31T05:00:41;8.20;99.90
25640;DHT22;13497;48.322;16.204;2023-03-31T05:03:07;8.20;99.90
25640;DHT22;13497;48.322;16.204;2023-03-31T05:05:33;8.10;99.90
25640;DHT22;13497;48.322;16.204;2023-03-31T05:07:59;8.10;99.90
25640;DHT22;13497;48.322;16.204;2023-03-31T05:10:25;8.20;99.90
25640;DHT22;13497;48.322;16.204;2023-03-31T05:12:51;8.20;99.90
25640;DHT22;13497;48.322;16.204;2023-03-31T05:15:16;8.20;99.90
25640;DHT22;13497;48.322;16.204;2023-03-31T05:17:42;8.30;99.90
25640;DHT22;13497;48.322;16.204;2023-03-31T05:20:09;8.30;99.90
25640;DHT22;13497;48.322;16.204;2023-03-31T05:22:36;8.30;99.90
25640;DHT22;13497;48.322;16.204;2023-03-31T05:25:04;8.40;99.90
25640;DHT22;13497;48.322;16.204;2023-03-31T05:27:30;8.50;99.90
25640;DHT22;13497;48.322;16.204;2023-03-31T05:29:55;9.00;99.90
25640;DHT22;13497;48.322;16.204;2023-03-31T05:32:21;9.90;99.90
25640;DHT22;13497;48.322;16.204;2023-03-31T05:34:47;10.80;99.90
25640;DHT22;13497;48.322;16.204;2023-03-31T05:37:14;11.60;99.90
25640;DHT22;13497;48.322;16.204;2023-03-31T05:39:39;12.00;99.90
25640;DHT22;13497;48.322;16.204;2023-03-31T05:42:05;12.30;99.90
25640;DHT22;13497;48.322;16.204;2023-03-31T05:44:32;12.70;99.90
25640;DHT22;13497;48.322;16.204;2023-03-31T05:46:57;13.30;99.90
25640;DHT22;13497;48.322;16.204;2023-03-31T05:49:23;13.50;99.90
25640;DHT22;13497;48.322;16.204;2023-03-31T05:51:49;13.70;99.90
25640;DHT22;13497;48.322;16.204;2023-03-31T05:54:15;13.70;99.90
25640;DHT22;13497;48.322;16.204;2023-03-31T05:56:40;13.60;99.90
25640;DHT22;13497;48.322;16.204;2023-03-31T05:59:06;13.20;99.90
25640;DHT22;13497;48.322;16.204;2023-03-31T06:01:32;12.70;99.90
25640;DHT22;13497;48.322;16.204;2023-03-31T06:03:57;12.30;99.90
25640;DHT22;13497;48.322;16.204;2023-03-31T06:06:23;11.70;99.90
25640;DHT22;13497;48.322;16.204;2023-03-31T06:08:51;11.40;99.90
25640;DHT22;13497;48.322;16.204;2023-03-31T06:11:21;11.20;99.90
25640;DHT22;13497;48.322;16.204;2023-03-31T06:13:47;11.20;99.90
25640;DHT22;13497;48.322;16.204;2023-03-31T06:16:15;11.30;99.90
25640;DHT22;13497;48.322;16.204;2023-03-31T06:18:41;11.50;99.90
25640;DHT22;13497;48.322;16.204;2023-03-31T06:21:11;11.80;99.90
25640;DHT22;13497;48.322;16.204;2023-03-31T06:23:37;11.80;99.90
25640;DHT22;13497;48.322;16.204;2023-03-31T06:26:05;11.90;99.90
25640;DHT22;13497;48.322;16.204;2023-03-31T06:28:31;12.10;99.90
25640;DHT22;13497;48.322;16.204;2023-03-31T06:31:00;12.30;99.90
25640;DHT22;13497;48.322;16.204;2023-03-31T06:33:26;12.30;99.90
25640;DHT22;13497;48.322;16.204;2023-03-31T06:35:55;12.30;99.90
25640;DHT22;13497;48.322;16.204;2023-03-31T06:38:21;12.20;99.90
25640;DHT22;13497;48.322;16.204;2023-03-31T06:40:47;12.30;99.90
25640;DHT22;13497;48.322;16.204;2023-03-31T06:43:13;12.40;99.90
25640;DHT22;13497;48.322;16.204;2023-03-31T06:45:38;12.70;99.90
25640;DHT22;13497;48.322;16.204;2023-03-31T06:48:04;12.70;99.90
25640;DHT22;13497;48.322;16.204;2023-03-31T06:50:31;12.70;99.90
25640;DHT22;13497;48.322;16.204;2023-03-31T06:52:56;12.90;99.90
25640;DHT22;13497;48.322;16.204;2023-03-31T06:55:23;13.00;99.90
25640;DHT22;13497;48.322;16.204;2023-03-31T06:57:49;13.10;99.90
25640;DHT22;13497;48.322;16.204;2023-03-31T07:00:15;13.10;99.90
25640;DHT22;13497;48.322;16.204;2023-03-31T07:02:41;13.10;99.90
25640;DHT22;13497;48.322;16.204;2023-03-31T07:05:07;13.10;99.90
25640;DHT22;13497;48.322;16.204;2023-03-31T07:07:33;13.20;99.90
25640;DHT22;13497;48.322;16.204;2023-03-31T07:09:59;13.30;99.90
25640;DHT22;13497;48.322;16.204;2023-03-31T07:12:25;13.40;99.90
25640;DHT22;13497;48.322;16.204;2023-03-31T07:14:50;13.60;99.90
25640;DHT22;13497;48.322;16.204;2023-03-31T07:17:16;13.70;99.90
25640;DHT22;13497;48.322;16.204;2023-03-31T07:19:41;13.90;99.90
25640;DHT22;13497;48.322;16.204;2023-03-31T07:22:12;14.00;99.90
25640;DHT22;13497;48.322;16.204;2023-03-31T07:24:39;14.10;99.90
25640;DHT22;13497;48.322;16.204;2023-03-31T07:27:04;14.10;99.90
25640;DHT22;13497;48.322;16.204;2023-03-31T07:29:33;14.20;99.90
25640;DHT22;13497;48.322;16.204;2023-03-31T07:31:59;14.30;99.90
25640;DHT22;13497;48.322;16.204;2023-03-31T07:34:25;14.40;99.90
25640;DHT22;13497;48.322;16.204;2023-03-31T07:36:54;14.30;99.90
25640;DHT22;13497;48.322;16.204;2023-03-31T07:39:20;14.30;99.90
25640;DHT22;13497;48.322;16.204;2023-03-31T07:41:47;14.50;99.90
25640;DHT22;13497;48.322;16.204;2023-03-31T07:44:13;14.60;99.90
25640;DHT22;13497;48.322;16.204;2023-03-31T07:46:40;14.70;99.90
25640;DHT22;13497;48.322;16.204;2023-03-31T07:49:05;14.90;99.90
25640;DHT22;13497;48.322;16.204;2023-03-31T07:51:32;14.90;99.90
25640;DHT22;13497;48.322;16.204;2023-03-31T07:53:59;15.00;99.90
25640;DHT22;13497;48.322;16.204;2023-03-31T07:56:25;14.90;99.90
25640;DHT22;13497;48.322;16.204;2023-03-31T07:58:51;14.90;99.90
25640;DHT22;13497;48.322;16.204;2023-03-31T08:01:20;15.00;99.90
25640;DHT22;13497;48.322;16.204;2023-03-31T08:03:50;15.10;99.90
25640;DHT22;13497;48.322;16.204;2023-03-31T08:06:21;15.10;99.90
25640;DHT22;13497;48.322;16.204;2023-03-31T08:08:48;15.20;99.90
25640;DHT22;13497;48.322;16.204;2023-03-31T08:11:14;15.10;99.90
25640;DHT22;13497;48.322;16.204;2023-03-31T08:13:39;15.10;99.90
25640;DHT22;13497;48.322;16.204;2023-03-31T08:16:05;15.20;99.90
25640;DHT22;13497;48.322;16.204;2023-03-31T08:18:31;15.30;99.90
25640;DHT22;13497;48.322;16.204;2023-03-31T08:20:57;15.30;99.90
25640;DHT22;13497;48.322;16.204;2023-03-31T08:23:23;15.40;99.90
25640;DHT22;13497;48.322;16.204;2023-03-31T08:25:48;15.40;99.90
25640;DHT22;13497;48.322;16.204;2023-03-31T08:28:14;15.40;99.90
25640;DHT22;13497;48.322;16.204;2023-03-31T08:30:40;15.30;99.90
25640;DHT22;13497;48.322;16.204;2023-03-31T08:33:07;15.20;99.90
25640;DHT22;13497;48.322;16.204;2023-03-31T08:35:34;15.10;99.90
25640;DHT22;13497;48.322;16.204;2023-03-31T08:38:00;15.20;99.90
25640;DHT22;13497;48.322;16.204;2023-03-31T08:40:27;15.20;99.90
25640;DHT22;13497;48.322;16.204;2023-03-31T08:43:05;15.20;99.90
25640;DHT22;13497;48.322;16.204;2023-03-31T08:45:35;15.30;99.90
25640;DHT22;13497;48.322;16.204;2023-03-31T08:48:20;15.40;99.90
25640;DHT22;13497;48.322;16.204;2023-03-31T08:50:54;15.50;99.90
25640;DHT22;13497;48.322;16.204;2023-03-31T08:53:42;15.40;99.90
25640;DHT22;13497;48.322;16.204;2023-03-31T08:56:19;15.40;99.90
25640;DHT22;13497;48.322;16.204;2023-03-31T08:58:48;15.30;99.90
25640;DHT22;13497;48.322;16.204;2023-03-31T09:06:22;15.50;99.90
25640;DHT22;13497;48.322;16.204;2023-03-31T09:08:54;15.60;99.90
25640;DHT22;13497;48.322;16.204;2023-03-31T09:11:34;15.80;99.90
25640;DHT22;13497;48.322;16.204;2023-03-31T09:14:30;15.80;99.90
25640;DHT22;13497;48.322;16.204;2023-03-31T09:19:58;15.90;98.60
25640;DHT22;13497;48.322;16.204;2023-03-31T09:22:32;15.90;98.10
25640;DHT22;13497;48.322;16.204;2023-03-31T09:25:18;15.90;97.80
25640;DHT22;13497;48.322;16.204;2023-03-31T09:27:45;16.00;97.70
25640;DHT22;13497;48.322;16.204;2023-03-31T09:32:39;16.30;97.60
25640;DHT22;13497;48.322;16.204;2023-03-31T09:35:17;16.60;98.00
25640;DHT22;13497;48.322;16.204;2023-03-31T09:37:46;16.80;97.80
25640;DHT22;13497;48.322;16.204;2023-03-31T09:40:25;17.10;97.40
25640;DHT22;13497;48.322;16.204;2023-03-31T09:43:06;17.30;97.20
25640;DHT22;13497;48.322;16.204;2023-03-31T09:45:33;17.30;96.70
25640;DHT22;13497;48.322;16.204;2023-03-31T09:48:15;17.50;96.30
25640;DHT22;13497;48.322;16.204;2023-03-31T09:50:46;17.50;95.80
25640;DHT22;13497;48.322;16.204;2023-03-31T09:53:21;17.30;95.50
25640;DHT22;13497;48.322;16.204;2023-03-31T09:55:53;17.30;95.40
25640;DHT22;13497;48.322;16.204;2023-03-31T09:58:21;17.30;95.30
25640;DHT22;13497;48.322;16.204;2023-03-31T10:01:03;17.10;95.20
25640;DHT22;13497;48.322;16.204;2023-03-31T10:03:31;17.10;95.10
25640;DHT22;13497;48.322;16.204;2023-03-31T10:06:07;16.90;94.60
25640;DHT22;13497;48.322;16.204;2023-03-31T10:08:39;17.00;94.50
25640;DHT22;13497;48.322;16.204;2023-03-31T10:11:09;16.90;94.60
25640;DHT22;13497;48.322;16.204;2023-03-31T10:13:47;16.80;94.70
25640;DHT22;13497;48.322;16.204;2023-03-31T10:16:41;16.80;94.40
25640;DHT22;13497;48.322;16.204;2023-03-31T10:21:38;16.60;95.00
25640;DHT22;13497;48.322;16.204;2023-03-31T10:24:08;16.70;94.70
25640;DHT22;13497;48.322;16.204;2023-03-31T10:26:35;16.90;95.70
25640;DHT22;13497;48.322;16.204;2023-03-31T10:29:01;17.00;95.90
25640;DHT22;13497;48.322;16.204;2023-03-31T10:31:36;17.00;95.80
25640;DHT22;13497;48.322;16.204;2023-03-31T10:34:08;17.00;96.30
25640;DHT22;13497;48.322;16.204;2023-03-31T10:36:37;17.00;96.80
25640;DHT22;13497;48.322;16.204;2023-03-31T10:39:06;17.10;96.20
25640;DHT22;13497;48.322;16.204;2023-03-31T10:41:32;17.10;95.30
25640;DHT22;13497;48.322;16.204;2023-03-31T10:44:00;17.10;95.00
25640;DHT22;13497;48.322;16.204;2023-03-31T10:49:19;16.60;95.20
25640;DHT22;13497;48.322;16.204;2023-03-31T10:51:58;16.60;95.90
25640;DHT22;13497;48.322;16.204;2023-03-31T10:54:25;16.50;95.90
25640;DHT22;13497;48.322;16.204;2023-03-31T10:56:57;16.50;96.10
25640;DHT22;13497;48.322;16.204;2023-03-31T11:00:00;16.50;96.10
25640;DHT22;13497;48.322;16.204;2023-03-31T11:07:50;16.70;97.00
25640;DHT22;13497;48.322;16.204;2023-03-31T11:16:08;16.70;97.10
25640;DHT22;13497;48.322;16.204;2023-03-31T11:18:59;16.90;97.40
25640;DHT22;13497;48.322;16.204;2023-03-31T11:22:14;17.20;96.70
25640;DHT22;13497;48.322;16.204;2023-03-31T11:30:12;18.70;94.50
25640;DHT22;13497;48.322;16.204;2023-03-31T11:33:18;18.30;93.60
25640;DHT22;13497;48.322;16.204;2023-03-31T11:35:52;18.00;94.00
25640;DHT22;13497;48.322;16.204;2023-03-31T11:43:43;18.20;94.30
25640;DHT22;13497;48.322;16.204;2023-03-31T11:46:22;18.20;94.10
25640;DHT22;13497;48.322;16.204;2023-03-31T11:48:59;18.40;93.90
25640;DHT22;13497;48.322;16.204;2023-03-31T11:51:41;18.70;93.50
25640;DHT22;13497;48.322;16.204;2023-03-31T11:54:23;18.80;92.60
25640;DHT22;13497;48.322;16.204;2023-03-31T11:56:50;18.80;91.30
25640;DHT22;13497;48.322;16.204;2023-03-31T11:59:16;18.80;91.40
25640;DHT22;13497;48.322;16.204;2023-03-31T12:04:32;19.00;92.10
25640;DHT22;13497;48.322;16.204;2023-03-31T12:07:28;19.50;92.00
25640;DHT22;13497;48.322;16.204;2023-03-31T12:10:16;19.90;93.90
25640;DHT22;13497;48.322;16.204;2023-03-31T12:15:34;19.60;95.40
25640;DHT22;13497;48.322;16.204;2023-03-31T12:18:13;19.20;96.70
25640;DHT22;13497;48.322;16.204;2023-03-31T12:20:46;18.80;97.10
25640;DHT22;13497;48.322;16.204;2023-03-31T12:23:18;18.50;98.20
25640;DHT22;13497;48.322;16.204;2023-03-31T12:28:52;17.50;99.90
25640;DHT22;13497;48.322;16.204;2023-03-31T12:31:22;17.20;99.90
25640;DHT22;13497;48.322;16.204;2023-03-31T12:34:02;17.30;99.90
25640;DHT22;13497;48.322;16.204;2023-03-31T12:50:27;17.70;99.90
25640;DHT22;13497;48.322;16.204;2023-03-31T13:01:18;17.40;99.90
25640;DHT22;13497;48.322;16.204;2023-03-31T13:04:06;17.30;99.90
25640;DHT22;13497;48.322;16.204;2023-03-31T13:09:03;17.50;99.40
25640;DHT22;13497;48.322;16.204;2023-03-31T13:13:59;17.60;98.90
25640;DHT22;13497;48.322;16.204;2023-03-31T13:16:25;17.70;98.40
25640;DHT22;13497;48.322;16.204;2023-03-31T13:18:52;17.70;97.80
25640;DHT22;13497;48.322;16.204;2023-03-31T13:21:19;17.80;97.70
25640;DHT22;13497;48.322;16.204;2023-03-31T13:23:45;17.70;97.90
25640;DHT22;13497;48.322;16.204;2023-03-31T13:34:58;17.50;97.30
25640;DHT22;13497;48.322;16.204;2023-03-31T13:37:59;17.70;96.30
25640;DHT22;13497;48.322;16.204;2023-03-31T13:40:39;17.90;94.00
25640;DHT22;13497;48.322;16.204;2023-03-31T13:43:54;18.10;94.10
25640;DHT22;13497;48.322;16.204;2023-03-31T13:51:54;18.10;92.90
25640;DHT22;13497;48.322;16.204;2023-03-31T14:00:45;18.30;92.60
25640;DHT22;13497;48.322;16.204;2023-03-31T14:08:59;18.60;92.50
25640;DHT22;13497;48.322;16.204;2023-03-31T14:11:30;18.40;91.60
25640;DHT22;13497;48.322;16.204;2023-03-31T14:16:39;18.00;91.60
25640;DHT22;13497;48.322;16.204;2023-03-31T14:25:14;17.10;92.30
25640;DHT22;13497;48.322;16.204;2023-03-31T14:28:13;17.00;92.60
25640;DHT22;13497;48.322;16.204;2023-03-31T14:30:47;16.90;92.70
25640;DHT22;13497;48.322;16.204;2023-03-31T14:36:04;16.80;92.60
25640;DHT22;13497;48.322;16.204;2023-03-31T14:38:33;16.80;92.80
25640;DHT22;13497;48.322;16.204;2023-03-31T14:40:59;16.80;92.70
25640;DHT22;13497;48.322;16.204;2023-03-31T14:43:28;16.70;93.10
25640;DHT22;13497;48.322;16.204;2023-03-31T14:48:27;16.60;93.60
25640;DHT22;13497;48.322;16.204;2023-03-31T14:50:56;16.50;94.00
25640;DHT22;13497;48.322;16.204;2023-03-31T14:53:24;16.50;93.50
25640;DHT22;13497;48.322;16.204;2023-03-31T14:55:57;16.50;93.70
25640;DHT22;13497;48.322;16.204;2023-03-31T14:58:28;16.50;93.50
25640;DHT22;13497;48.322;16.204;2023-03-31T15:00:55;16.50;93.40
25640;DHT22;13497;48.322;16.204;2023-03-31T15:03:21;16.40;93.30
25640;DHT22;13497;48.322;16.204;2023-03-31T15:05:50;16.30;93.40
25640;DHT22;13497;48.322;16.204;2023-03-31T15:08:21;16.30;93.40
25640;DHT22;13497;48.322;16.204;2023-03-31T15:10:51;16.30;93.50
25640;DHT22;13497;48.322;16.204;2023-03-31T15:13:27;16.30;93.50
25640;DHT22;13497;48.322;16.204;2023-03-31T15:15:55;16.20;93.60
25640;DHT22;13497;48.322;16.204;2023-03-31T15:18:21;16.10;93.90
25640;DHT22;13497;48.322;16.204;2023-03-31T15:20:50;14.90;97.40
25640;DHT22;13497;48.322;16.204;2023-03-31T15:23:23;13.70;99.90
25640;DHT22;13497;48.322;16.204;2023-03-31T15:25:58;13.10;99.90
25640;DHT22;13497;48.322;16.204;2023-03-31T15:28:30;12.80;99.90
25640;DHT22;13497;48.322;16.204;2023-03-31T15:30:58;12.60;99.90
25640;DHT22;13497;48.322;16.204;2023-03-31T15:33:34;12.30;99.90
25640;DHT22;13497;48.322;16.204;2023-03-31T15:36:12;12.10;99.90
25640;DHT22;13497;48.322;16.204;2023-03-31T15:38:38;12.00;99.90
25640;DHT22;13497;48.322;16.204;2023-03-31T15:41:10;11.90;99.90
25640;DHT22;13497;48.322;16.204;2023-03-31T15:43:48;11.90;99.90
25640;DHT22;13497;48.322;16.204;2023-03-31T15:49:19;12.10;99.90
25640;DHT22;13497;48.322;16.204;2023-03-31T15:51:46;12.20;99.90
25640;DHT22;13497;48.322;16.204;2023-03-31T15:54:33;12.20;99.90
25640;DHT22;13497;48.322;16.204;2023-03-31T15:57:00;12.30;99.90
25640;DHT22;13497;48.322;16.204;2023-03-31T15:59:28;12.30;99.90
25640;DHT22;13497;48.322;16.204;2023-03-31T16:01:57;12.40;99.90
25640;DHT22;13497;48.322;16.204;2023-03-31T16:04:30;12.40;99.90
25640;DHT22;13497;48.322;16.204;2023-03-31T16:07:08;12.40;99.90
25640;DHT22;13497;48.322;16.204;2023-03-31T16:12:29;12.60;99.90
25640;DHT22;13497;48.322;16.204;2023-03-31T16:17:35;12.50;99.90
25640;DHT22;13497;48.322;16.204;2023-03-31T16:20:04;12.50;99.90
25640;DHT22;13497;48.322;16.204;2023-03-31T16:22:39;12.50;99.90
25640;DHT22;13497;48.322;16.204;2023-03-31T16:25:09;12.50;99.90
25640;DHT22;13497;48.322;16.204;2023-03-31T16:27:47;12.60;99.90
25640;DHT22;13497;48.322;16.204;2023-03-31T16:30:16;12.70;99.90
25640;DHT22;13497;48.322;16.204;2023-03-31T16:35:36;12.80;99.70
25640;DHT22;13497;48.322;16.204;2023-03-31T16:38:03;12.90;99.60
25640;DHT22;13497;48.322;16.204;2023-03-31T16:40:34;12.90;99.10
25640;DHT22;13497;48.322;16.204;2023-03-31T16:43:15;12.90;99.50
25640;DHT22;13497;48.322;16.204;2023-03-31T16:46:01;12.90;99.90
25640;DHT22;13497;48.322;16.204;2023-03-31T16:48:30;12.80;99.90
25640;DHT22;13497;48.322;16.204;2023-03-31T16:50:59;12.70;99.80
25640;DHT22;13497;48.322;16.204;2023-03-31T16:53:29;12.80;99.50
25640;DHT22;13497;48.322;16.204;2023-03-31T16:55:56;12.80;99.00
25640;DHT22;13497;48.322;16.204;2023-03-31T16:58:22;12.80;98.80
25640;DHT22;13497;48.322;16.204;2023-03-31T17:00:49;12.90;98.90
25640;DHT22;13497;48.322;16.204;2023-03-31T17:03:15;12.90;99.10
25640;DHT22;13497;48.322;16.204;2023-03-31T17:05:43;12.80;99.40
25640;DHT22;13497;48.322;16.204;2023-03-31T17:08:10;12.80;99.60
25640;DHT22;13497;48.322;16.204;2023-03-31T17:10:40;12.80;99.90
25640;DHT22;13497;48.322;16.204;2023-03-31T17:13:07;12.70;99.90
25640;DHT22;13497;48.322;16.204;2023-03-31T17:15:34;12.60;99.90
25640;DHT22;13497;48.322;16.204;2023-03-31T17:18:04;12.50;99.90
25640;DHT22;13497;48.322;16.204;2023-03-31T17:20:31;12.40;99.90
25640;DHT22;13497;48.322;16.204;2023-03-31T17:22:58;12.30;99.90
25640;DHT22;13497;48.322;16.204;2023-03-31T17:25:24;12.30;99.90
25640;DHT22;13497;48.322;16.204;2023-03-31T17:27:50;12.30;99.90
25640;DHT22;13497;48.322;16.204;2023-03-31T17:30:16;12.20;99.90
25640;DHT22;13497;48.322;16.204;2023-03-31T17:32:42;12.10;99.90
25640;DHT22;13497;48.322;16.204;2023-03-31T17:35:08;12.10;99.90
25640;DHT22;13497;48.322;16.204;2023-03-31T17:37:35;12.00;99.90
25640;DHT22;13497;48.322;16.204;2023-03-31T17:40:02;11.90;99.90
25640;DHT22;13497;48.322;16.204;2023-03-31T17:42:29;11.90;99.90
25640;DHT22;13497;48.322;16.204;2023-03-31T17:44:55;11.80;99.90
25640;DHT22;13497;48.322;16.204;2023-03-31T17:47:23;11.70;99.90
25640;DHT22;13497;48.322;16.204;2023-03-31T17:49:48;11.70;99.90
25640;DHT22;13497;48.322;16.204;2023-03-31T17:52:14;11.60;99.90
25640;DHT22;13497;48.322;16.204;2023-03-31T17:54:40;11.50;99.90
25640;DHT22;13497;48.322;16.204;2023-03-31T17:57:07;11.40;99.90
25640;DHT22;13497;48.322;16.204;2023-03-31T17:59:33;11.50;99.90
25640;DHT22;13497;48.322;16.204;2023-03-31T18:01:58;11.50;99.90
25640;DHT22;13497;48.322;16.204;2023-03-31T18:04:25;11.50;99.90
25640;DHT22;13497;48.322;16.204;2023-03-31T18:06:51;11.60;99.90
25640;DHT22;13497;48.322;16.204;2023-03-31T18:09:17;11.60;99.90
25640;DHT22;13497;48.322;16.204;2023-03-31T18:11:43;11.60;99.90
25640;DHT22;13497;48.322;16.204;2023-03-31T18:14:08;11.70;99.90
25640;DHT22;13497;48.322;16.204;2023-03-31T18:16:34;11.70;99.90
25640;DHT22;13497;48.322;16.204;2023-03-31T18:19:01;11.70;99.90
25640;DHT22;13497;48.322;16.204;2023-03-31T18:21:27;11.60;99.90
25640;DHT22;13497;48.322;16.204;2023-03-31T18:23:53;11.60;99.90
25640;DHT22;13497;48.322;16.204;2023-03-31T18:26:23;11.60;99.90
25640;DHT22;13497;48.322;16.204;2023-03-31T18:28:49;11.60;99.90
25640;DHT22;13497;48.322;16.204;2023-03-31T18:31:15;11.60;99.90
25640;DHT22;13497;48.322;16.204;2023-03-31T18:33:41;11.50;99.90